Time;durP1;ratioP1;P1;durP2;ratioP2;P2;SDS_P1;SDS_P2;PMS_P1;PMS_P2;Temp;Humidity;BMP_temperature;BMP_pressure;BME280_temperature;BME280_humidity;BME280_pressure;Samples;Min_cycle;Max_cycle;Signal;HPM_P1;HPM_P2
2022/04/14 00:01:07;;;;;;;7.93;6.90;;;;;;;13.96;77.63;98101.16;4120667;28;20750;-83
2022/04/14 00:03:11;;;;;;;10.20;6.87;;;;;;;13.95;77.30;98098.66;4157657;28;20650;-83
2022/04/14 00:05:14;;;;;;;7.80;6.90;;;;;;;13.88;77.96;98093.06;4137848;28;20700;-83
2022/04/14 00:07:17;;;;;;;10.93;6.70;;;;;;;13.83;78.79;98105.72;4158708;28;21077;-83
2022/04/14 00:09:21;;;;;;;8.60;7.00;;;;;;;13.74;78.26;98105.63;4141272;28;20638;-83
2022/04/14 00:11:24;;;;;;;7.87;7.10;;;;;;;13.68;77.68;98106.13;4157763;28;20640;-83
2022/04/14 00:13:27;;;;;;;8.50;6.33;;;;;;;13.63;77.86;98102.22;4154856;28;20634;-83
2022/04/14 00:15:32;;;;;;;7.80;7.00;;;;;;;13.57;78.67;98094.84;4156672;28;21226;-83
2022/04/14 00:17:36;;;;;;;8.10;6.20;;;;;;;13.54;78.39;98098.53;4157938;28;20661;-83
2022/04/14 00:19:42;;;;;;;8.70;6.97;;;;;;;13.49;78.79;98098.06;4141928;28;20697;-83
2022/04/14 00:21:45;;;;;;;9.70;6.87;;;;;;;13.45;78.19;98103.69;4132457;28;21225;-83
2022/04/14 00:23:49;;;;;;;9.67;7.27;;;;;;;13.39;78.08;98098.94;4153015;28;20624;-84
2022/04/14 00:25:52;;;;;;;9.43;6.90;;;;;;;13.38;78.83;98099.88;4153153;28;20620;-84
2022/04/14 00:27:56;;;;;;;8.80;7.67;;;;;;;13.31;79.39;98096.91;4136517;28;20628;-84
2022/04/14 00:29:59;;;;;;;8.80;7.27;;;;;;;13.29;80.60;98095.34;4154655;28;20641;-83
2022/04/14 00:32:04;;;;;;;13.27;7.37;;;;;;;13.30;79.72;98097.03;4139801;28;20657;-83
2022/04/14 00:34:08;;;;;;;7.63;6.47;;;;;;;13.28;79.17;98096.34;4140229;28;21135;-83
2022/04/14 00:36:11;;;;;;;8.90;7.67;;;;;;;13.29;80.13;98088.34;4151019;28;21412;-83
2022/04/14 00:38:16;;;;;;;7.73;6.90;;;;;;;13.31;79.05;98089.06;4152154;28;20636;-84
2022/04/14 00:40:19;;;;;;;13.30;8.00;;;;;;;13.35;79.35;98092.25;4139031;28;20636;-84
2022/04/14 00:42:23;;;;;;;9.97;7.67;;;;;;;13.39;79.59;98083.22;4134189;28;20676;-84
2022/04/14 00:44:26;;;;;;;11.40;7.50;;;;;;;13.43;79.66;98082.03;4147376;28;20650;-83
2022/04/14 00:46:30;;;;;;;11.00;7.50;;;;;;;13.39;78.60;98086.66;4145295;28;20679;-83
2022/04/14 00:48:35;;;;;;;8.63;7.30;;;;;;;13.26;78.42;98083.34;4145464;28;20673;-84
2022/04/14 00:50:38;;;;;;;9.50;7.20;;;;;;;13.15;80.08;98082.53;4150567;28;21216;-83
2022/04/14 00:52:46;;;;;;;7.90;6.87;;;;;;;13.14;78.03;98082.66;4149292;28;20661;-83
2022/04/14 00:54:49;;;;;;;11.33;7.63;;;;;;;13.05;78.97;98081.59;4166564;28;20727;-83
2022/04/14 00:56:52;;;;;;;9.10;7.07;;;;;;;13.00;78.52;98085.50;4159568;28;21090;-84
2022/04/14 00:58:56;;;;;;;9.03;7.00;;;;;;;12.97;78.81;98089.19;4134909;28;20689;-84
2022/04/14 01:01:00;;;;;;;8.80;8.00;;;;;;;12.93;80.24;98100.88;4146352;28;20653;-83
2022/04/14 01:03:04;;;;;;;8.10;7.33;;;;;;;12.91;79.96;98108.00;4146758;28;20890;-83
2022/04/14 01:05:09;;;;;;;12.50;7.10;;;;;;;12.86;80.04;98110.13;4160853;28;20662;-83
2022/04/14 01:07:13;;;;;;;7.47;6.77;;;;;;;12.83;79.71;98114.78;4155118;28;21137;-83
2022/04/14 01:09:19;;;;;;;7.80;7.00;;;;;;;12.77;80.43;98115.22;4148452;28;21198;-83
2022/04/14 01:11:22;;;;;;;7.83;6.57;;;;;;;12.76;81.75;98114.41;4142710;28;20743;-83
2022/04/14 01:13:26;;;;;;;8.43;7.63;;;;;;;12.72;80.35;98120.00;4158237;28;20654;-84
2022/04/14 01:15:29;;;;;;;8.73;7.10;;;;;;;12.68;80.75;98126.41;4157063;28;21173;-83
2022/04/14 01:17:32;;;;;;;11.03;7.67;;;;;;;12.63;80.17;98118.06;4157203;28;20654;-83
2022/04/14 01:19:36;;;;;;;8.43;6.90;;;;;;;12.60;80.88;98122.69;4146829;28;21036;-83
2022/04/14 01:21:42;;;;;;;12.43;8.30;;;;;;;12.55;79.97;98132.66;4158510;28;20662;-83
2022/04/14 01:23:47;;;;;;;8.97;7.57;;;;;;;12.52;81.21;98125.88;4141951;28;20980;-83
2022/04/14 01:25:51;;;;;;;7.83;7.03;;;;;;;12.47;81.36;98127.19;4128196;28;20648;-83
2022/04/14 01:27:54;;;;;;;11.40;6.70;;;;;;;12.46;80.39;98131.59;4146936;28;20714;-83
2022/04/14 01:29:58;;;;;;;8.40;6.90;;;;;;;12.46;79.89;98138.59;4154172;28;20634;-84
2022/04/14 01:32:02;;;;;;;10.93;8.30;;;;;;;12.42;80.40;98142.41;4124070;28;20664;-83
2022/04/14 01:34:06;;;;;;;8.40;7.43;;;;;;;12.39;81.89;98134.78;4142625;28;20693;-83
2022/04/14 01:36:09;;;;;;;11.33;8.07;;;;;;;12.40;82.66;98136.44;4144628;28;20643;-83
2022/04/14 01:38:13;;;;;;;8.90;7.43;;;;;;;12.38;82.67;98141.78;4158791;28;20651;-83
2022/04/14 01:40:18;;;;;;;11.43;7.60;;;;;;;12.40;80.41;98146.91;4145678;28;20712;-83
2022/04/14 01:42:22;;;;;;;8.27;7.47;;;;;;;12.34;80.88;98136.88;4148669;28;20636;-83
2022/04/14 01:44:25;;;;;;;9.90;7.53;;;;;;;12.26;81.19;98141.88;4145159;28;20648;-83
2022/04/14 01:46:28;;;;;;;8.70;7.80;;;;;;;12.17;80.96;98150.38;4123714;28;20659;-83
2022/04/14 01:48:32;;;;;;;8.27;7.37;;;;;;;12.08;80.99;98140.59;4161652;28;20621;-83
2022/04/14 01:50:35;;;;;;;10.73;7.63;;;;;;;12.01;81.25;98141.16;4160495;28;21286;-83
2022/04/14 01:52:39;;;;;;;9.27;7.13;;;;;;;11.95;80.58;98136.38;4151251;28;20667;-83
2022/04/14 01:54:42;;;;;;;8.57;7.00;;;;;;;11.92;80.63;98145.31;4128295;28;20631;-83
2022/04/14 01:56:47;;;;;;;11.07;8.50;;;;;;;11.90;80.64;98141.13;4147351;28;20638;-83
2022/04/14 01:58:52;;;;;;;9.50;8.00;;;;;;;11.88;80.97;98143.03;4148371;28;20744;-83
2022/04/14 02:00:56;;;;;;;8.57;7.67;;;;;;;11.88;81.37;98149.06;4147622;28;20639;-83
2022/04/14 02:02:59;;;;;;;10.60;8.40;;;;;;;11.84;81.63;98154.63;4145523;28;20638;-83
2022/04/14 02:05:03;;;;;;;9.20;8.00;;;;;;;11.81;82.75;98152.25;4125632;28;20670;-83
2022/04/14 02:07:06;;;;;;;8.40;7.60;;;;;;;11.78;81.62;98150.66;4139326;28;20647;-83
2022/04/14 02:09:09;;;;;;;8.30;7.40;;;;;;;11.75;81.84;98152.69;4139142;28;20627;-83
2022/04/14 02:11:13;;;;;;;8.53;7.60;;;;;;;11.70;82.58;98152.19;4140313;28;20637;-84
2022/04/14 02:13:17;;;;;;;8.60;7.70;;;;;;;11.68;82.74;98155.84;4139985;28;24438;-83
2022/04/14 02:15:21;;;;;;;9.03;8.00;;;;;;;11.66;82.05;98161.16;4156317;28;21195;-83
2022/04/14 02:17:25;;;;;;;9.77;7.87;;;;;;;11.64;83.40;98162.25;4140087;28;21243;-83
2022/04/14 02:19:28;;;;;;;8.90;7.17;;;;;;;11.63;83.71;98153.56;4139577;28;20637;-84
2022/04/14 02:21:31;;;;;;;8.10;7.20;;;;;;;11.60;83.62;98161.59;4124190;28;20662;-83
2022/04/14 02:23:37;;;;;;;9.30;7.40;;;;;;;11.55;83.62;98162.91;4162390;28;20664;-83
2022/04/14 02:25:41;;;;;;;12.93;7.63;;;;;;;11.48;82.14;98161.66;4143656;28;20631;-83
2022/04/14 02:27:44;;;;;;;11.13;7.60;;;;;;;11.46;82.81;98163.50;4165987;28;20645;-83
2022/04/14 02:29:49;;;;;;;10.70;8.33;;;;;;;11.44;83.50;98162.75;4145041;28;20744;-83
2022/04/14 02:31:56;;;;;;;7.93;7.10;;;;;;;11.39;83.41;98165.69;4143989;28;20724;-83
2022/04/14 02:34:03;;;;;;;9.87;7.20;;;;;;;11.42;82.72;98169.88;4153238;28;20716;-84
2022/04/14 02:36:07;;;;;;;11.93;8.13;;;;;;;11.39;83.32;98172.72;4158385;28;21094;-83
2022/04/14 02:38:10;;;;;;;8.90;7.20;;;;;;;11.37;83.80;98174.59;4144971;28;20643;-84
2022/04/14 02:40:14;;;;;;;9.43;7.57;;;;;;;11.38;84.00;98164.06;4141440;28;20696;-84
2022/04/14 02:42:17;;;;;;;11.10;7.40;;;;;;;11.40;83.30;98166.56;4140559;28;20699;-83
2022/04/14 02:44:21;;;;;;;8.93;7.13;;;;;;;11.41;84.14;98166.44;4142518;28;21007;-83
2022/04/14 02:46:26;;;;;;;8.53;7.70;;;;;;;11.41;83.79;98174.28;4141019;28;20651;-83
2022/04/14 02:48:29;;;;;;;9.37;7.47;;;;;;;11.43;84.46;98177.59;4139115;28;21495;-83
2022/04/14 02:50:33;;;;;;;10.67;8.20;;;;;;;11.42;83.38;98181.16;4148393;28;21154;-83
2022/04/14 02:52:37;;;;;;;9.27;7.50;;;;;;;11.38;83.46;98179.72;4147444;28;20634;-83
2022/04/14 02:54:41;;;;;;;9.17;7.30;;;;;;;11.33;83.45;98175.75;4127334;28;20706;-83
2022/04/14 02:56:44;;;;;;;8.10;7.30;;;;;;;11.27;83.62;98187.47;4140060;28;20661;-84
2022/04/14 02:58:48;;;;;;;10.67;8.27;;;;;;;11.18;82.84;98187.25;4158336;28;20680;-83
2022/04/14 03:00:51;;;;;;;10.87;8.60;;;;;;;11.18;83.33;98184.66;4156983;28;20627;-84
2022/04/14 03:02:56;;;;;;;8.70;7.27;;;;;;;11.13;83.28;98180.69;4139795;28;20630;-84
2022/04/14 03:04:59;;;;;;;8.90;7.73;;;;;;;11.08;83.90;98186.22;4155525;28;20664;-83
2022/04/14 03:07:03;;;;;;;9.90;8.40;;;;;;;10.99;83.47;98186.88;4122906;28;20644;-83
2022/04/14 03:09:06;;;;;;;9.80;8.13;;;;;;;10.92;83.57;98184.78;4121106;28;21016;-83
2022/04/14 03:11:12;;;;;;;8.60;7.43;;;;;;;10.90;83.47;98182.28;4145636;28;20692;-84
2022/04/14 03:13:20;;;;;;;9.77;8.27;;;;;;;10.86;83.91;98193.03;4140227;28;21244;-83
2022/04/14 03:15:23;;;;;;;9.77;8.20;;;;;;;10.84;84.38;98187.91;4141520;28;20630;-83
2022/04/14 03:17:27;;;;;;;9.93;8.20;;;;;;;10.83;84.55;98188.00;4144850;28;20650;-83
2022/04/14 03:19:31;;;;;;;8.83;7.90;;;;;;;10.86;84.92;98190.41;4157141;28;20641;-83
2022/04/14 03:21:35;;;;;;;10.90;8.77;;;;;;;10.87;84.68;98189.47;4143042;28;20654;-83
2022/04/14 03:23:39;;;;;;;14.80;8.80;;;;;;;10.89;84.18;98192.81;4158431;28;20622;-84
2022/04/14 03:25:42;;;;;;;10.80;8.67;;;;;;;10.87;84.65;98192.91;4160695;28;20648;-83
2022/04/14 03:27:46;;;;;;;10.43;8.53;;;;;;;10.86;85.15;98191.22;4140710;28;20635;-84
2022/04/14 03:29:49;;;;;;;11.47;8.77;;;;;;;10.83;85.46;98194.06;4144893;28;20665;-83
2022/04/14 03:31:52;;;;;;;11.50;7.70;;;;;;;10.82;85.25;98194.16;4145423;28;20631;-83
2022/04/14 03:33:56;;;;;;;10.67;8.47;;;;;;;10.82;85.22;98189.78;4142380;28;20670;-83
2022/04/14 03:36:00;;;;;;;10.47;8.70;;;;;;;10.84;85.39;98187.09;4141421;28;20619;-83
2022/04/14 03:38:04;;;;;;;14.10;9.13;;;;;;;10.84;85.15;98182.69;4122539;28;20646;-84
2022/04/14 03:40:27;;;;;;;9.43;8.40;;;;;;;10.84;85.82;98194.91;4156167;28;20651;-84
2022/04/14 03:42:31;;;;;;;9.17;8.07;;;;;;;10.82;85.69;98188.94;4157094;28;20668;-83
2022/04/14 03:44:34;;;;;;;13.10;8.97;;;;;;;10.83;85.37;98194.06;4137693;28;21307;-84
2022/04/14 03:46:37;;;;;;;8.90;8.00;;;;;;;10.84;85.15;98192.28;4144267;28;20668;-83
2022/04/14 03:48:42;;;;;;;9.90;8.40;;;;;;;10.83;85.37;98196.66;4142002;28;20866;-83
2022/04/14 03:50:45;;;;;;;12.70;9.10;;;;;;;10.82;85.01;98204.59;4121241;28;21065;-83
2022/04/14 03:52:50;;;;;;;11.68;10.10;;;;;;;10.84;85.14;98203.56;4123041;28;20787;-83
2022/04/14 03:54:53;;;;;;;12.27;10.07;;;;;;;10.84;85.79;98214.00;4144968;28;20226;-84
2022/04/14 03:56:56;;;;;;;11.40;10.07;;;;;;;10.83;85.15;98217.53;4154164;28;20654;-83
2022/04/14 03:59:00;;;;;;;11.07;8.93;;;;;;;10.81;85.52;98214.19;4145637;28;20647;-83
2022/04/14 04:01:04;;;;;;;12.03;9.17;;;;;;;10.81;84.94;98216.81;4139738;28;21485;-83
2022/04/14 04:03:09;;;;;;;11.80;9.57;;;;;;;10.77;84.61;98230.16;4140933;28;20744;-84
2022/04/14 04:05:15;;;;;;;10.77;9.13;;;;;;;10.74;85.08;98217.31;4159599;28;20719;-83
2022/04/14 04:07:18;;;;;;;10.40;8.80;;;;;;;10.71;85.07;98222.75;4142204;28;21236;-83
2022/04/14 04:09:23;;;;;;;10.50;9.20;;;;;;;10.66;84.73;98219.63;4145260;28;21123;-83
2022/04/14 04:11:27;;;;;;;11.90;9.70;;;;;;;10.59;84.49;98215.72;4156066;28;21163;-84
2022/04/14 04:13:30;;;;;;;11.30;8.90;;;;;;;10.52;84.74;98211.84;4141563;28;20646;-84
2022/04/14 04:15:34;;;;;;;14.23;9.13;;;;;;;10.49;84.96;98212.09;4156952;28;21226;-83
2022/04/14 04:17:38;;;;;;;11.67;9.30;;;;;;;10.54;84.92;98209.13;4161127;28;20627;-83
2022/04/14 04:19:43;;;;;;;9.57;8.43;;;;;;;10.50;84.77;98213.72;4141530;28;20627;-83
2022/04/14 04:21:46;;;;;;;10.87;8.87;;;;;;;10.47;85.71;98207.91;4137637;28;20728;-83
2022/04/14 04:23:49;;;;;;;13.50;9.33;;;;;;;10.50;85.29;98212.91;4120562;28;20639;-83
2022/04/14 04:25:54;;;;;;;11.17;9.20;;;;;;;10.52;85.67;98213.63;4154717;28;21227;-83
2022/04/14 04:28:02;;;;;;;9.87;8.50;;;;;;;10.50;85.74;98212.91;4151559;28;21664;-84
2022/04/14 04:30:10;;;;;;;10.03;8.07;;;;;;;10.44;85.46;98215.91;4146352;28;21217;-83
2022/04/14 04:32:13;;;;;;;11.27;8.73;;;;;;;10.41;85.92;98219.53;4144741;28;20679;-84
2022/04/14 04:34:17;;;;;;;9.77;8.47;;;;;;;10.41;85.14;98222.16;4144429;28;20703;-83
2022/04/14 04:36:20;;;;;;;12.17;9.37;;;;;;;10.40;84.89;98222.25;4144855;28;20674;-84
2022/04/14 04:38:23;;;;;;;9.73;8.47;;;;;;;10.38;85.49;98226.75;4140823;28;20662;-84
2022/04/14 04:40:29;;;;;;;13.10;8.87;;;;;;;10.40;85.27;98219.66;4137843;28;20645;-83
2022/04/14 04:42:34;;;;;;;12.83;9.07;;;;;;;10.38;85.41;98224.13;4140295;28;20649;-83
2022/04/14 04:44:41;;;;;;;12.40;9.33;;;;;;;10.38;84.89;98224.97;4154276;28;20738;-83
2022/04/14 04:46:45;;;;;;;11.60;9.13;;;;;;;10.36;84.24;98226.84;4138046;28;21268;-83
2022/04/14 04:48:48;;;;;;;14.67;9.53;;;;;;;10.35;84.06;98229.56;4156427;28;21330;-84
2022/04/14 04:50:51;;;;;;;9.17;8.27;;;;;;;10.30;84.87;98230.78;4138982;28;20649;-84
2022/04/14 04:52:55;;;;;;;11.20;9.30;;;;;;;10.30;84.97;98235.97;4155131;28;20646;-83
2022/04/14 04:54:58;;;;;;;10.70;8.67;;;;;;;10.27;84.82;98237.03;4158727;28;20668;-83
2022/04/14 04:57:02;;;;;;;10.00;8.40;;;;;;;10.24;84.35;98236.38;4142203;28;20632;-83
2022/04/14 04:59:08;;;;;;;11.40;8.03;;;;;;;10.22;84.32;98239.09;4155650;28;20772;-83
2022/04/14 05:01:12;;;;;;;9.70;8.37;;;;;;;10.22;84.97;98246.09;4156703;28;20644;-84
2022/04/14 05:03:17;;;;;;;10.33;8.60;;;;;;;10.24;85.30;98238.97;4143310;28;21423;-83
2022/04/14 05:05:25;;;;;;;9.97;8.97;;;;;;;10.26;86.10;98243.19;4139726;28;20660;-83
2022/04/14 05:07:30;;;;;;;14.63;10.03;;;;;;;10.30;85.87;98252.47;4150318;28;20645;-83
2022/04/14 05:09:34;;;;;;;10.50;9.37;;;;;;;10.34;85.49;98243.50;4137179;28;20638;-84
2022/04/14 05:11:37;;;;;;;13.03;9.87;;;;;;;10.39;85.87;98257.94;4142519;28;20630;-83
2022/04/14 05:13:41;;;;;;;12.60;9.37;;;;;;;10.46;86.36;98256.59;4139082;28;21225;-84
2022/04/14 05:15:45;;;;;;;15.00;10.17;;;;;;;10.56;84.82;98255.06;4139632;28;20655;-83
2022/04/14 05:17:49;;;;;;;13.33;10.33;;;;;;;10.68;85.61;98264.69;4142373;28;20658;-84
2022/04/14 05:19:52;;;;;;;19.53;11.10;;;;;;;10.80;84.59;98265.66;4145591;28;20636;-83
2022/04/14 05:21:56;;;;;;;18.67;10.53;;;;;;;10.93;84.88;98276.00;4135728;28;20656;-83
2022/04/14 05:24:00;;;;;;;12.20;9.80;;;;;;;11.08;84.16;98276.72;4153664;28;21273;-83
2022/04/14 05:26:03;;;;;;;13.70;10.37;;;;;;;11.21;84.28;98273.19;4137788;28;21265;-83
2022/04/14 05:28:07;;;;;;;14.30;10.70;;;;;;;11.35;83.90;98279.16;4151387;28;20617;-83
2022/04/14 05:30:11;;;;;;;14.60;10.70;;;;;;;11.53;83.30;98282.28;4141209;28;20637;-84
2022/04/14 05:32:16;;;;;;;17.97;10.90;;;;;;;11.65;82.98;98282.31;4143444;28;21062;-83
2022/04/14 05:34:20;;;;;;;16.33;11.70;;;;;;;11.80;82.56;98289.91;4154060;28;20657;-83
2022/04/14 05:36:23;;;;;;;17.10;11.67;;;;;;;11.93;82.20;98293.31;4140079;28;20663;-83
2022/04/14 05:38:27;;;;;;;17.40;11.60;;;;;;;12.07;81.58;98292.34;4123498;28;20626;-83
2022/04/14 05:40:30;;;;;;;18.03;11.40;;;;;;;12.18;80.32;98293.25;4142939;28;21155;-83
2022/04/14 05:42:34;;;;;;;18.60;11.10;;;;;;;12.31;80.81;98304.50;4146914;28;20639;-83
2022/04/14 05:44:38;;;;;;;16.17;10.30;;;;;;;12.41;80.62;98301.09;4141189;28;20676;-83
2022/04/14 05:46:41;;;;;;;16.37;10.83;;;;;;;12.56;79.86;98294.75;4138117;28;20644;-83
2022/04/14 05:48:47;;;;;;;16.20;11.37;;;;;;;12.66;79.87;98292.31;4145323;28;21064;-83
2022/04/14 05:50:51;;;;;;;17.43;10.90;;;;;;;12.76;80.24;98292.38;4140921;28;20666;-84
2022/04/14 05:53:00;;;;;;;15.20;11.40;;;;;;;12.90;81.00;98294.84;4152080;28;20673;-82
2022/04/14 05:55:05;;;;;;;14.17;11.00;;;;;;;13.03;80.03;98306.03;4143665;28;20746;-83
2022/04/14 05:57:08;;;;;;;16.20;11.80;;;;;;;13.18;79.18;98309.31;4162211;28;21246;-85
2022/04/14 05:59:16;;;;;;;17.70;11.70;;;;;;;13.28;79.59;98311.94;4148211;28;20737;-85
2022/04/14 06:01:20;;;;;;;16.33;12.23;;;;;;;13.43;78.45;98305.56;4159122;28;20646;-86
2022/04/14 06:03:24;;;;;;;20.23;12.53;;;;;;;13.58;78.60;98311.41;4137050;28;20642;-85
2022/04/14 06:05:29;;;;;;;14.53;10.87;;;;;;;13.71;78.57;98311.19;4142052;28;20640;-85
2022/04/14 06:07:32;;;;;;;17.07;11.80;;;;;;;13.84;77.55;98314.50;4155691;28;20739;-85
2022/04/14 06:09:36;;;;;;;14.87;11.40;;;;;;;14.01;77.95;98316.66;4130865;28;20651;-85
2022/04/14 06:11:39;;;;;;;16.07;11.23;;;;;;;14.18;76.74;98310.97;4138660;28;20692;-85
2022/04/14 06:13:42;;;;;;;16.20;12.03;;;;;;;14.34;75.66;98309.63;4162099;28;20631;-85
2022/04/14 06:15:46;;;;;;;17.23;12.17;;;;;;;14.52;75.97;98315.19;4156606;28;20697;-85
2022/04/14 06:17:50;;;;;;;15.37;10.87;;;;;;;14.58;76.26;98315.50;4143453;28;20674;-84
2022/04/14 06:19:55;;;;;;;14.07;11.00;;;;;;;14.63;76.21;98324.69;4152415;28;21124;-84
2022/04/14 06:22:00;;;;;;;14.47;11.57;;;;;;;14.65;76.20;98322.75;4143807;28;20760;-84
2022/04/14 06:24:04;;;;;;;23.00;16.33;;;;;;;14.71;75.41;98319.66;4143144;28;20659;-85
2022/04/14 06:26:09;;;;;;;22.07;14.17;;;;;;;14.79;75.45;98324.28;4157017;28;20649;-85
2022/04/14 06:28:12;;;;;;;25.43;15.30;;;;;;;14.96;74.88;98321.09;4157726;28;20633;-84
2022/04/14 06:30:17;;;;;;;17.33;13.90;;;;;;;15.13;76.64;98327.47;4145611;28;20653;-84
2022/04/14 06:32:21;;;;;;;20.93;13.40;;;;;;;15.26;76.91;98325.53;4146105;28;20710;-84
2022/04/14 06:34:29;;;;;;;19.03;14.07;;;;;;;15.35;75.21;98337.91;4149849;28;20679;-85
2022/04/14 06:36:34;;;;;;;19.43;14.30;;;;;;;15.49;74.98;98336.75;4162268;28;20653;-85
2022/04/14 06:38:39;;;;;;;19.23;14.90;;;;;;;15.66;76.63;98340.44;4127326;28;20627;-85
2022/04/14 06:40:42;;;;;;;20.40;15.27;;;;;;;15.90;75.52;98340.19;4128260;28;20729;-86
2022/04/14 06:42:46;;;;;;;15.73;12.97;;;;;;;16.14;74.15;98346.78;4158164;28;20625;-87
2022/04/14 06:44:49;;;;;;;16.63;13.00;;;;;;;16.35;76.00;98344.97;4144749;28;21288;-86
2022/04/14 06:46:53;;;;;;;19.00;15.13;;;;;;;16.60;74.39;98346.13;4146139;28;20633;-87
2022/04/14 06:48:57;;;;;;;15.40;13.30;;;;;;;16.84;75.24;98346.59;4154428;28;20660;-87
2022/04/14 06:51:00;;;;;;;19.30;13.43;;;;;;;17.09;75.01;98349.53;4145870;28;20650;-86
2022/04/14 06:53:04;;;;;;;15.90;13.10;;;;;;;17.32;73.45;98350.09;4157198;28;21367;-86
2022/04/14 06:55:10;;;;;;;16.03;14.03;;;;;;;17.49;74.21;98355.50;4152276;28;20638;-83
2022/04/14 06:57:14;;;;;;;19.87;14.73;;;;;;;17.73;74.53;98353.25;4162425;28;21070;-83
2022/04/14 06:59:17;;;;;;;22.00;15.50;;;;;;;17.96;73.64;98355.41;4144326;28;20691;-84
2022/04/14 07:01:21;;;;;;;17.03;14.77;;;;;;;18.11;73.04;98357.44;4161539;28;20741;-83
2022/04/14 07:03:26;;;;;;;19.87;15.87;;;;;;;18.21;71.91;98349.53;4149412;28;20614;-83
2022/04/14 07:05:30;;;;;;;18.77;16.73;;;;;;;18.34;71.98;98345.53;4158367;28;20645;-89
2022/04/14 07:07:34;;;;;;;20.73;17.40;;;;;;;18.55;72.65;98357.56;4142240;28;20680;-89
2022/04/14 07:09:37;;;;;;;31.33;26.13;;;;;;;18.70;72.69;98358.72;4157503;28;21291;-89
2022/04/14 07:11:42;;;;;;;22.87;18.93;;;;;;;18.86;72.05;98358.06;4154153;28;20665;-89
2022/04/14 07:13:46;;;;;;;30.60;21.20;;;;;;;19.00;71.53;98356.59;4152902;28;20737;-89
2022/04/14 07:15:50;;;;;;;27.47;19.07;;;;;;;19.17;70.65;98352.28;4133431;28;20634;-89
2022/04/14 07:17:53;;;;;;;21.80;19.17;;;;;;;19.27;72.73;98353.88;4160747;28;20634;-89
2022/04/14 07:19:58;;;;;;;22.40;17.73;;;;;;;19.39;70.04;98358.81;4157189;28;20733;-89
2022/04/14 07:22:02;;;;;;;22.10;19.50;;;;;;;19.42;71.25;98355.84;4147540;28;21209;-89
2022/04/14 07:24:06;;;;;;;20.37;18.20;;;;;;;19.59;70.65;98354.16;4139805;28;20630;-89
2022/04/14 07:26:09;;;;;;;22.37;18.73;;;;;;;19.67;69.61;98349.75;4143659;28;20646;-89
2022/04/14 07:28:14;;;;;;;21.90;18.10;;;;;;;19.73;69.89;98357.09;4156114;28;20621;-89
2022/04/14 07:30:27;;;;;;;21.70;18.80;;;;;;;19.77;69.78;98361.09;4144640;28;21374;-89
2022/04/14 07:32:34;;;;;;;22.07;18.53;;;;;;;19.75;69.89;98360.41;4140963;28;20634;-89
2022/04/14 07:34:38;;;;;;;21.27;18.30;;;;;;;19.89;71.40;98357.22;4140144;28;21230;-89
2022/04/14 07:36:41;;;;;;;22.17;18.17;;;;;;;19.87;69.96;98359.19;4140200;28;20663;-89
2022/04/14 07:38:45;;;;;;;26.93;19.43;;;;;;;19.94;70.23;98352.31;4144348;28;20669;-89
2022/04/14 07:40:48;;;;;;;24.40;18.83;;;;;;;20.05;68.62;98359.97;4154500;28;20624;-88
2022/04/14 07:42:52;;;;;;;22.60;18.63;;;;;;;20.04;67.01;98363.59;4148243;28;21302;-89
2022/04/14 07:44:57;;;;;;;23.03;19.50;;;;;;;20.13;69.88;98365.31;4136142;28;20646;-89
2022/04/14 07:47:06;;;;;;;20.07;17.97;;;;;;;20.29;69.62;98376.00;4152991;28;20645;-89
2022/04/14 07:49:10;;;;;;;21.23;17.60;;;;;;;20.32;68.06;98375.69;4142139;28;21448;-89
2022/04/14 07:51:13;;;;;;;23.30;17.90;;;;;;;20.39;69.11;98370.44;4139549;28;20669;-89
2022/04/14 07:53:17;;;;;;;22.27;18.27;;;;;;;20.44;69.03;98381.38;4141827;28;20633;-89
2022/04/14 07:55:22;;;;;;;19.90;17.90;;;;;;;20.51;68.43;98376.31;4142338;28;20631;-89
2022/04/14 07:57:25;;;;;;;24.20;18.67;;;;;;;20.63;68.92;98367.06;4141256;28;21953;-89
2022/04/14 07:59:29;;;;;;;21.03;17.30;;;;;;;20.82;69.61;98388.88;4142466;28;20634;-89
2022/04/14 08:01:34;;;;;;;21.07;18.70;;;;;;;20.90;68.97;98380.97;4142685;28;20629;-89
2022/04/14 08:03:39;;;;;;;18.87;16.77;;;;;;;20.92;67.74;98389.56;4140633;28;20648;-89
2022/04/14 08:05:44;;;;;;;34.33;28.63;;;;;;;21.08;69.50;98401.06;4157134;28;20629;-89
2022/04/14 08:07:48;;;;;;;22.73;18.90;;;;;;;21.17;69.31;98396.59;4141323;28;20644;-88
2022/04/14 08:09:51;;;;;;;26.13;18.10;;;;;;;21.18;66.54;98406.22;4146590;28;20745;-88
2022/04/14 08:11:55;;;;;;;23.20;19.47;;;;;;;21.25;66.88;98400.09;4148685;28;21193;-89
2022/04/14 08:13:58;;;;;;;21.37;17.57;;;;;;;21.36;68.83;98397.13;4145497;28;20634;-89
2022/04/14 08:16:05;;;;;;;20.27;17.87;;;;;;;21.48;68.25;98404.63;4147124;28;20696;-88
2022/04/14 08:18:11;;;;;;;23.50;18.77;;;;;;;21.58;68.12;98404.50;4158447;28;21063;-89
2022/04/14 08:20:16;;;;;;;23.50;18.70;;;;;;;21.62;67.72;98406.66;4159586;28;20666;-89
2022/04/14 08:22:19;;;;;;;20.23;16.97;;;;;;;21.73;66.92;98402.84;4153351;28;20642;-89
2022/04/14 08:24:23;;;;;;;20.03;15.80;;;;;;;21.70;66.67;98404.00;4140327;28;21003;-89
2022/04/14 08:26:27;;;;;;;19.40;15.87;;;;;;;21.63;67.00;98408.31;4146403;28;20641;-89
2022/04/14 08:28:30;;;;;;;21.33;17.20;;;;;;;21.56;68.71;98401.16;4135219;28;20634;-89
2022/04/14 08:30:35;;;;;;;18.90;16.30;;;;;;;21.50;67.33;98397.34;4143101;28;20631;-89
2022/04/14 08:32:39;;;;;;;18.93;16.60;;;;;;;21.55;67.07;98397.69;4142621;28;20716;-89
2022/04/14 08:34:45;;;;;;;21.73;18.13;;;;;;;21.66;65.44;98397.34;4156604;28;21692;-89
2022/04/14 08:36:52;;;;;;;19.57;17.57;;;;;;;21.76;65.87;98394.56;4159533;28;21061;-89
2022/04/14 08:38:56;;;;;;;18.27;16.10;;;;;;;21.85;66.33;98400.50;4139152;28;20649;-89
2022/04/14 08:41:03;;;;;;;19.20;16.67;;;;;;;21.91;65.89;98397.19;4149897;28;21200;-89
2022/04/14 08:43:18;;;;;;;19.20;15.77;;;;;;;21.97;64.83;98390.38;4141025;28;20632;-88
2022/04/14 08:45:25;;;;;;;21.77;16.20;;;;;;;22.06;64.63;98394.69;4151357;28;20626;-88
2022/04/14 08:47:30;;;;;;;17.80;15.63;;;;;;;22.15;66.77;98399.00;4143997;28;20660;-88
2022/04/14 08:49:33;;;;;;;17.70;15.90;;;;;;;22.28;64.55;98397.47;4143844;28;21073;-88
2022/04/14 08:51:40;;;;;;;17.33;15.63;;;;;;;22.38;66.98;98408.78;4137637;28;20636;-89
2022/04/14 08:53:43;;;;;;;20.33;16.27;;;;;;;22.50;65.58;98399.44;4153839;28;20638;-88
2022/04/14 08:55:47;;;;;;;19.77;16.53;;;;;;;22.54;65.76;98404.25;4140383;28;20634;-87
2022/04/14 08:57:51;;;;;;;18.80;15.67;;;;;;;22.59;65.33;98409.88;4154371;28;20693;-88
2022/04/14 08:59:55;;;;;;;19.30;17.20;;;;;;;22.74;65.31;98402.84;4151538;28;20709;-89
2022/04/14 09:02:02;;;;;;;18.90;16.97;;;;;;;22.81;66.58;98403.81;4143273;28;20633;-88
2022/04/14 09:04:06;;;;;;;17.23;15.43;;;;;;;22.92;64.55;98398.09;4138580;28;20741;-88
2022/04/14 09:06:10;;;;;;;17.10;15.30;;;;;;;22.96;64.88;98402.13;4153904;28;21602;-88
2022/04/14 09:08:15;;;;;;;22.30;18.10;;;;;;;22.96;64.65;98405.59;4145066;28;20672;-88
2022/04/14 09:10:18;;;;;;;30.67;19.20;;;;;;;23.02;66.72;98393.41;4155357;28;20707;-88
2022/04/14 09:12:22;;;;;;;23.90;18.90;;;;;;;23.00;64.18;98390.94;4144052;28;20994;-87
2022/04/14 09:14:25;;;;;;;20.20;17.90;;;;;;;22.93;66.73;98391.78;4153629;28;20712;-88
2022/04/14 09:16:30;;;;;;;19.00;16.60;;;;;;;22.91;65.44;98391.13;4138763;28;20729;-88
2022/04/14 09:18:35;;;;;;;21.73;18.13;;;;;;;22.97;63.57;98390.44;4149174;28;21034;-87
2022/04/14 09:20:42;;;;;;;21.33;17.40;;;;;;;23.05;64.67;98385.94;4144570;28;20639;-86
2022/04/14 09:23:10;;;;;;;21.17;16.00;;;;;;;23.00;65.01;98390.09;4142764;28;20657;-84
2022/04/14 09:25:20;;;;;;;22.43;18.70;;;;;;;23.01;64.53;98389.94;4147833;28;20638;-84
2022/04/14 09:27:27;;;;;;;28.87;22.70;;;;;;;23.08;65.01;98382.91;4145397;28;20696;-84
2022/04/14 09:29:30;;;;;;;17.83;15.93;;;;;;;23.09;65.94;98387.22;4139374;28;20660;-83
2022/04/14 09:31:47;;;;;;;21.07;15.37;;;;;;;23.10;63.27;98378.25;4156902;28;20779;-83
2022/04/14 09:33:51;;;;;;;18.63;15.13;;;;;;;23.11;65.30;98379.91;4141755;28;20658;-84
2022/04/14 09:36:07;;;;;;;19.33;15.20;;;;;;;23.18;64.84;98382.69;4149207;28;20687;-84
2022/04/14 09:38:13;;;;;;;19.97;15.67;;;;;;;23.31;64.30;98389.09;4140378;28;20690;-84